createdAt,value
2022-10-28T00:00:01.045Z,98903.6
2022-10-28T00:05:41.473Z,98901.3
2022-10-28T00:11:16.226Z,98894.1
2022-10-28T00:16:51.162Z,98883.1
2022-10-28T00:22:34.928Z,98872.7
2022-10-28T00:28:16.078Z,98876.4
2022-10-28T00:33:53.527Z,98881.4
2022-10-28T00:39:29.576Z,98888
2022-10-28T00:45:04.708Z,98875.7
2022-10-28T00:50:40.019Z,98869
2022-10-28T00:56:27.141Z,98867.3
2022-10-28T01:02:14.167Z,98849.4
2022-10-28T01:07:52.011Z,98860.1
2022-10-28T01:13:29.000Z,98859.8
2022-10-28T01:19:08.023Z,98853.3
2022-10-28T01:24:47.473Z,98847.3
2022-10-28T01:30:25.245Z,98853.8
2022-10-28T01:36:48.498Z,98847.4
2022-10-28T01:43:06.802Z,98834.4
2022-10-28T01:48:39.701Z,98835.7
2022-10-28T01:55:47.849Z,98827.6
2022-10-28T02:01:26.575Z,98828.1
2022-10-28T02:07:03.159Z,98813.4
2022-10-28T02:12:38.049Z,98809.3
2022-10-28T02:18:21.096Z,98808.9
2022-10-28T02:24:15.015Z,98817.9
2022-10-28T02:29:49.930Z,98813.6
2022-10-28T02:35:35.828Z,98811.2
2022-10-28T02:41:32.346Z,98817
2022-10-28T02:47:06.521Z,98819
2022-10-28T02:53:02.950Z,98814.2
2022-10-28T02:58:41.178Z,98812.3
2022-10-28T03:04:37.326Z,98812.3
2022-10-28T03:10:24.879Z,98814.9
2022-10-28T03:16:09.592Z,98815.5
2022-10-28T03:23:20.558Z,98813.9
2022-10-28T03:28:55.369Z,98810.6
2022-10-28T03:34:30.200Z,98821.3
2022-10-28T03:42:00.364Z,98825.2
2022-10-28T03:47:33.326Z,98836.9
2022-10-28T03:54:41.093Z,98848.6
2022-10-28T04:00:19.304Z,98849.3
2022-10-28T04:06:03.394Z,98873.2
2022-10-28T04:11:55.934Z,98862.3
2022-10-28T04:17:31.853Z,98872.6
2022-10-28T04:23:06.811Z,98876.5
2022-10-28T04:28:51.136Z,98862.7
2022-10-28T04:34:26.918Z,98862.5
2022-10-28T04:40:02.186Z,98857
2022-10-28T04:45:37.330Z,98846.1
2022-10-28T04:51:23.185Z,98848.1
2022-10-28T04:57:01.137Z,98850.6
2022-10-28T05:02:46.607Z,98853.8
2022-10-28T05:08:25.807Z,98864.1
2022-10-28T05:14:12.573Z,98868.5
2022-10-28T05:19:50.470Z,98867.5
2022-10-28T05:25:25.121Z,98876.2
2022-10-28T05:31:10.714Z,98882.2
2022-10-28T05:36:45.645Z,98880.6
2022-10-28T05:42:42.111Z,98886.8
2022-10-28T05:48:15.024Z,98885
2022-10-28T05:54:29.432Z,98885.4
2022-10-28T06:00:18.184Z,98873.8
2022-10-28T06:06:00.579Z,98869.9
2022-10-28T06:11:37.145Z,98872.6
2022-10-28T06:17:22.118Z,98887.8
2022-10-28T06:22:57.937Z,98888.4
2022-10-28T06:28:37.833Z,98892.9
2022-10-28T06:34:12.780Z,98908
2022-10-28T06:40:55.422Z,98925.7
2022-10-28T06:46:27.992Z,98928.1
2022-10-28T06:52:30.322Z,98924.9
2022-10-28T06:58:13.062Z,98934.2
2022-10-28T07:04:02.228Z,98939.5
2022-10-28T07:10:19.444Z,98946.9
2022-10-28T07:17:03.118Z,98955.6
2022-10-28T07:22:47.437Z,98970.5
2022-10-28T07:28:23.217Z,98962.4
2022-10-28T07:34:09.935Z,98964.7
2022-10-28T07:39:49.342Z,98964.9
2022-10-28T07:45:25.606Z,98974.8
2022-10-28T07:51:00.348Z,98978.3
2022-10-28T07:56:43.070Z,98983.1
2022-10-28T08:02:18.237Z,98984
2022-10-28T08:07:54.454Z,98979.6
2022-10-28T08:13:33.046Z,98978.5
2022-10-28T08:19:24.042Z,98990.9
2022-10-28T08:25:07.412Z,98991
2022-10-28T08:31:10.071Z,99000.7
2022-10-28T08:36:52.485Z,98997.9
2022-10-28T08:42:27.778Z,99013.1
2022-10-28T08:48:03.911Z,99019.4
2022-10-28T08:53:38.958Z,99030.3
2022-10-28T08:59:17.110Z,99040.1
2022-10-28T09:04:57.848Z,99043.2
2022-10-28T09:10:44.378Z,99054
2022-10-28T09:16:19.834Z,99047.8
2022-10-28T09:22:21.667Z,99068.2
2022-10-28T09:28:00.938Z,99068.5
2022-10-28T09:33:44.039Z,99065.3
2022-10-28T09:39:30.828Z,99073
2022-10-28T09:45:27.520Z,99076.6
2022-10-28T09:51:47.226Z,99075.4
2022-10-28T09:57:46.379Z,99083.8
2022-10-28T10:03:21.384Z,99101.9
2022-10-28T10:08:57.615Z,99097.4
2022-10-28T10:14:32.834Z,99098.7
2022-10-28T10:20:07.919Z,99109.5
2022-10-28T10:25:42.731Z,99103.5
2022-10-28T10:31:17.705Z,99105.2
2022-10-28T10:36:53.700Z,99101.1
2022-10-28T10:43:14.672Z,99100
2022-10-28T10:48:52.513Z,99097.2
2022-10-28T10:54:27.529Z,99102.6
2022-10-28T11:00:10.082Z,99108.3
2022-10-28T11:06:05.706Z,99105.6
2022-10-28T11:12:06.263Z,99109.1
2022-10-28T11:17:41.136Z,99120.5
2022-10-28T11:23:20.003Z,99115.8
2022-10-28T11:28:56.055Z,99118.6
2022-10-28T11:34:31.435Z,99114.8
2022-10-28T11:40:07.511Z,99120.1
2022-10-28T11:45:55.026Z,99131.3
2022-10-28T11:51:32.634Z,99116.7
2022-10-28T11:57:30.609Z,99117.7
2022-10-28T12:03:06.507Z,99113
2022-10-28T12:08:45.456Z,99108.8
2022-10-28T12:14:20.549Z,99100
2022-10-28T12:19:56.001Z,99102.8
2022-10-28T12:26:01.758Z,99103.8
2022-10-28T12:31:37.045Z,99095.9
2022-10-28T12:37:12.139Z,99079.9
2022-10-28T12:43:12.636Z,99077.7
2022-10-28T12:48:45.577Z,99071.1
2022-10-28T12:54:26.585Z,99067
2022-10-28T13:00:38.398Z,99072.7
2022-10-28T13:06:33.089Z,99071.6
2022-10-28T13:12:09.215Z,99076.4
2022-10-28T13:17:44.470Z,99071.9
2022-10-28T13:23:19.297Z,99063.4
2022-10-28T13:29:18.115Z,99052.4
2022-10-28T13:35:01.708Z,99048
2022-10-28T13:41:21.962Z,99044.4
2022-10-28T13:46:54.924Z,99048.1
2022-10-28T13:52:30.271Z,99044
2022-10-28T13:58:05.214Z,99036
2022-10-28T14:03:41.144Z,99037.2
2022-10-28T14:09:17.792Z,99023.4
2022-10-28T14:14:53.823Z,99027.5
2022-10-28T14:20:31.531Z,99022.5
2022-10-28T14:26:07.462Z,99019.3
2022-10-28T14:31:42.500Z,99018.9
2022-10-28T14:37:18.524Z,99020
2022-10-28T14:43:30.979Z,99018.8
2022-10-28T14:49:04.002Z,99014.4
2022-10-28T14:54:44.980Z,99012.6
2022-10-28T15:00:26.594Z,99011.3
2022-10-28T15:06:05.533Z,99010
2022-10-28T15:11:40.501Z,99004.6
2022-10-28T15:17:24.838Z,99000.6
2022-10-28T15:23:36.264Z,99001
2022-10-28T15:29:30.295Z,98987.8
2022-10-28T15:35:26.747Z,98975
2022-10-28T15:41:23.668Z,98980.4
2022-10-28T15:46:56.901Z,98979.3
2022-10-28T15:52:40.142Z,98978.4
2022-10-28T15:58:23.776Z,98969.7
2022-10-28T16:03:58.951Z,98968.3
2022-10-28T16:09:39.215Z,98964
2022-10-28T16:15:17.699Z,98957.5
2022-10-28T16:20:55.779Z,98950.4
2022-10-28T16:26:39.418Z,98956.5
2022-10-28T16:32:20.140Z,98947.5
2022-10-28T16:38:16.675Z,98947
2022-10-28T16:43:52.812Z,98944.1
2022-10-28T16:49:32.585Z,98937.2
2022-10-28T16:55:09.085Z,98940.8
2022-10-28T17:00:43.858Z,98938
2022-10-28T17:06:18.864Z,98939.4
2022-10-28T17:12:14.355Z,98937.7
2022-10-28T17:17:50.328Z,98930.4
2022-10-28T17:23:25.096Z,98933.8
2022-10-28T17:29:08.658Z,98935.4
2022-10-28T17:34:44.738Z,98940
2022-10-28T17:40:20.068Z,98931.5
2022-10-28T17:45:54.990Z,98930.7
2022-10-28T17:51:29.970Z,98935.8
2022-10-28T17:57:04.930Z,98931.9
2022-10-28T18:02:41.245Z,98927.2
2022-10-28T18:08:18.119Z,98927.8
2022-10-28T18:13:53.104Z,98922.5
2022-10-28T18:19:36.970Z,98925.1
2022-10-28T18:25:12.747Z,98924.8
2022-10-28T18:30:48.850Z,98919
2022-10-28T18:36:24.314Z,98915.7
2022-10-28T18:42:23.516Z,98913.1
2022-10-28T18:47:57.731Z,98918.5
2022-10-28T18:53:36.357Z,98918.2
2022-10-28T18:59:11.152Z,98910.4
2022-10-28T19:04:50.463Z,98902.4
2022-10-28T19:10:25.296Z,98899.3
2022-10-28T19:16:00.782Z,98899.1
2022-10-28T19:21:37.326Z,98897.2
2022-10-28T19:27:14.899Z,98896.9
2022-10-28T19:32:58.492Z,98900.8
2022-10-28T19:38:34.566Z,98906.1
2022-10-28T19:44:09.394Z,98900.2
2022-10-28T19:49:45.214Z,98895.9
2022-10-28T19:55:20.171Z,98896.4
2022-10-28T20:00:54.939Z,98902.5
2022-10-28T20:06:29.926Z,98897.9
2022-10-28T20:12:05.169Z,98894.5
2022-10-28T20:17:41.328Z,98894.3
2022-10-28T20:23:16.571Z,98901.5
2022-10-28T20:28:52.554Z,98892.5
2022-10-28T20:34:27.544Z,98893
2022-10-28T20:40:08.312Z,98905.2
2022-10-28T20:45:43.138Z,98906.1
2022-10-28T20:51:17.824Z,98899.2
2022-10-28T20:56:52.641Z,98901.3
2022-10-28T21:02:37.979Z,98897.7
2022-10-28T21:08:14.562Z,98901.3
2022-10-28T21:13:52.254Z,98899.6
2022-10-28T21:19:27.469Z,98907.9
2022-10-28T21:25:03.296Z,98898.2
2022-10-28T21:30:38.414Z,98894.7
2022-10-28T21:36:34.156Z,98892.4
2022-10-28T21:42:31.731Z,98906.5
2022-10-28T21:48:04.378Z,98905.3
2022-10-28T21:53:40.636Z,98908.4
2022-10-28T21:59:15.544Z,98898.8
2022-10-28T22:04:50.405Z,98901.1
2022-10-28T22:10:25.517Z,98903.4
2022-10-28T22:16:00.617Z,98890.2
2022-10-28T22:21:35.677Z,98894.4
2022-10-28T22:27:11.497Z,98889.4
2022-10-28T22:32:46.996Z,98890.3
2022-10-28T22:38:21.843Z,98887.6
2022-10-28T22:43:56.877Z,98879.2
2022-10-28T22:49:32.715Z,98884.4
2022-10-28T22:55:08.562Z,98881.1
2022-10-28T23:00:44.011Z,98871.1
2022-10-28T23:06:20.273Z,98859.8
2022-10-28T23:11:55.281Z,98860.7
2022-10-28T23:17:30.281Z,98867.4
2022-10-28T23:23:05.586Z,98849.2
2022-10-28T23:28:40.472Z,98847.6
2022-10-28T23:34:15.688Z,98851.7
2022-10-28T23:39:50.386Z,98844.3
2022-10-28T23:45:26.465Z,98832.6
2022-10-28T23:51:03.379Z,98825.4
2022-10-28T23:56:38.708Z,98812.4
